Time;durP1;ratioP1;P1;durP2;ratioP2;P2;SDS_P1;SDS_P2;PMS_P1;PMS_P2;Temp;Humidity;BMP_temperature;BMP_pressure;BME280_temperature;BME280_humidity;BME280_pressure;Samples;Min_cycle;Max_cycle;Signal;HPM_P1;HPM_P2
2023/09/06 00:01:56;;;;;;;26.37;11.73;;;;;;;27.12;41.48;100463.27;1645775;87;22034;-78
2023/09/06 00:05:03;;;;;;;26.57;11.97;;;;;;;27.12;41.47;100462.42;1645642;87;21328;-79
2023/09/06 00:08:08;;;;;;;22.10;12.30;;;;;;;27.09;41.51;100464.37;1645379;87;22634;-79
2023/09/06 00:11:15;;;;;;;26.50;12.50;;;;;;;26.88;41.92;100467.17;1645877;87;21343;-79
2023/09/06 00:14:20;;;;;;;28.70;11.70;;;;;;;27.00;41.72;100462.09;1644727;87;21340;-79
2023/09/06 00:17:26;;;;;;;28.57;12.78;;;;;;;26.99;41.75;100460.98;1640651;87;21341;-79
2023/09/06 00:20:30;;;;;;;22.65;12.00;;;;;;;26.96;41.69;100462.41;1660510;86;21326;-79
2023/09/06 00:23:36;;;;;;;24.43;13.13;;;;;;;26.95;41.79;100461.27;1663575;86;21373;-79
2023/09/06 00:26:41;;;;;;;25.32;13.58;;;;;;;26.87;41.85;100461.29;1660451;86;21307;-79
2023/09/06 00:29:47;;;;;;;26.87;14.07;;;;;;;26.78;42.13;100460.73;1660466;86;21368;-79
2023/09/06 00:32:54;;;;;;;24.70;14.18;;;;;;;26.89;41.95;100468.85;1659324;86;21319;-79
2023/09/06 00:36:01;;;;;;;31.55;14.65;;;;;;;26.91;42.03;100475.58;1660568;86;21906;-79
2023/09/06 00:39:07;;;;;;;32.03;14.23;;;;;;;26.96;42.08;100471.36;1659847;84;21300;-79
2023/09/06 00:42:14;;;;;;;26.05;13.85;;;;;;;26.86;42.34;100468.00;1660706;86;21307;-79
2023/09/06 00:45:26;;;;;;;31.82;15.50;;;;;;;26.63;42.88;100474.16;1660690;86;21328;-79
2023/09/06 00:48:31;;;;;;;23.67;13.95;;;;;;;26.60;43.14;100472.77;1660759;86;21339;-78
2023/09/06 00:51:36;;;;;;;24.10;14.28;;;;;;;26.75;42.83;100469.13;1646506;86;21851;-78
2023/09/06 00:54:43;;;;;;;24.60;14.47;;;;;;;26.66;42.93;100466.04;1661713;86;21322;-78
2023/09/06 00:57:49;;;;;;;27.40;15.13;;;;;;;26.59;43.19;100470.26;1665499;86;21381;-79
2023/09/06 01:00:57;;;;;;;24.40;13.90;;;;;;;26.60;43.12;100469.12;1669547;86;21361;-79
2023/09/06 01:04:05;;;;;;;24.77;14.98;;;;;;;26.72;42.89;100464.07;1668248;86;21368;-78
2023/09/06 01:07:11;;;;;;;30.30;15.98;;;;;;;26.97;42.30;100465.48;1653555;86;21345;-79
2023/09/06 01:10:16;;;;;;;30.23;14.53;;;;;;;26.98;42.11;100475.59;1668219;86;21392;-78
2023/09/06 01:13:22;;;;;;;26.05;15.25;;;;;;;27.07;41.91;100474.47;1669578;86;21317;-79
2023/09/06 01:16:43;;;;;;;24.27;13.68;;;;;;;26.77;42.37;100472.48;1669488;86;21329;-78
2023/09/06 01:19:52;;;;;;;26.50;14.65;;;;;;;26.78;42.31;100477.00;1669290;86;21917;-78
2023/09/06 01:23:34;;;;;;;28.55;13.98;;;;;;;26.82;42.23;100477.26;1669455;86;21333;-78
2023/09/06 01:26:40;;;;;;;23.40;12.65;;;;;;;26.82;42.14;100473.05;1669431;86;21889;-78
2023/09/06 01:29:45;;;;;;;19.30;12.18;;;;;;;26.76;42.14;100475.02;1669650;86;21908;-78
2023/09/06 01:32:51;;;;;;;26.30;14.18;;;;;;;26.70;42.23;100474.18;1669522;86;21329;-79
2023/09/06 01:35:58;;;;;;;27.70;13.15;;;;;;;26.74;42.19;100472.50;1669670;86;21326;-79
2023/09/06 01:39:04;;;;;;;28.60;13.13;;;;;;;26.73;42.12;100474.20;1669748;86;21395;-78
2023/09/06 01:42:10;;;;;;;21.10;12.40;;;;;;;26.78;42.02;100471.39;1669716;86;21348;-78
2023/09/06 01:45:17;;;;;;;20.27;12.10;;;;;;;26.70;42.03;100475.58;1668709;86;21373;-79
2023/09/06 01:48:22;;;;;;;21.77;11.60;;;;;;;26.97;41.66;100478.69;1668127;86;21917;-79
2023/09/06 01:51:31;;;;;;;20.82;12.50;;;;;;;26.53;42.38;100482.56;1669436;86;21359;-79
2023/09/06 01:54:36;;;;;;;20.72;12.05;;;;;;;26.09;43.16;100479.63;1669853;85;22374;-79
2023/09/06 01:57:42;;;;;;;19.73;11.97;;;;;;;25.90;43.49;100474.23;1671206;86;22295;-78
2023/09/06 02:00:48;;;;;;;19.95;10.93;;;;;;;25.98;43.38;100476.52;1659394;85;22013;-79
2023/09/06 02:03:54;;;;;;;20.37;10.95;;;;;;;25.92;43.38;100473.39;1660653;86;21316;-78
2023/09/06 02:06:58;;;;;;;18.30;12.03;;;;;;;25.91;43.39;100477.31;1660827;86;21886;-79
2023/09/06 02:10:11;;;;;;;26.90;11.95;;;;;;;25.81;43.61;100480.08;1642177;86;21980;-78
2023/09/06 02:13:14;;;;;;;21.00;11.48;;;;;;;25.87;43.49;100480.38;1633507;88;21362;-78
2023/09/06 02:16:22;;;;;;;21.33;11.45;;;;;;;25.88;43.37;100479.28;1632337;88;21420;-79
2023/09/06 02:19:27;;;;;;;18.45;10.58;;;;;;;25.58;43.97;100477.97;1633078;88;21997;-78
2023/09/06 02:22:34;;;;;;;23.47;10.53;;;;;;;25.61;43.90;100477.44;1633293;88;21347;-78
2023/09/06 02:25:40;;;;;;;23.67;11.25;;;;;;;25.68;43.76;100475.22;1631510;86;21353;-78
2023/09/06 02:28:45;;;;;;;17.25;10.53;;;;;;;25.71;43.69;100478.05;1632098;88;21943;-79
2023/09/06 02:31:52;;;;;;;16.97;10.30;;;;;;;25.72;43.69;100476.92;1630848;88;21955;-79
2023/09/06 02:34:58;;;;;;;23.75;11.40;;;;;;;25.69;43.65;100485.89;1632142;88;21337;-79
2023/09/06 02:38:03;;;;;;;21.82;12.07;;;;;;;25.67;43.73;100489.50;1631090;88;21372;-78
2023/09/06 02:41:09;;;;;;;18.75;11.08;;;;;;;25.66;43.68;100489.22;1632143;88;21365;-78
2023/09/06 02:44:16;;;;;;;25.55;12.28;;;;;;;25.68;43.66;100486.42;1632364;88;21349;-78
2023/09/06 02:47:28;;;;;;;24.23;11.25;;;;;;;25.76;43.52;100485.66;1632033;88;21325;-78
2023/09/06 02:50:35;;;;;;;19.10;11.53;;;;;;;25.65;43.67;100486.14;1631742;87;21384;-78
2023/09/06 02:53:45;;;;;;;20.00;11.93;;;;;;;25.55;43.99;100493.94;1634224;86;21337;-78
2023/09/06 02:56:48;;;;;;;27.75;12.45;;;;;;;25.49;44.10;100486.59;1664597;86;21368;-78
2023/09/06 02:59:54;;;;;;;17.42;11.85;;;;;;;25.55;44.06;100493.06;1665786;85;21372;-79
2023/09/06 03:03:07;;;;;;;18.92;12.93;;;;;;;25.55;44.08;100496.73;1665636;86;21868;-79
2023/09/06 03:06:17;;;;;;;20.40;13.00;;;;;;;25.56;44.10;100495.61;1664785;86;21340;-78
2023/09/06 03:09:28;;;;;;;18.52;12.58;;;;;;;25.66;43.90;100504.06;1665501;86;21352;-79
2023/09/06 03:12:29;;;;;;;19.65;13.03;;;;;;;25.63;43.98;100504.59;1665524;86;21348;-79
2023/09/06 03:15:36;;;;;;;22.22;13.32;;;;;;;25.74;43.80;100507.77;1665481;86;21340;-79
2023/09/06 03:18:42;;;;;;;22.48;13.18;;;;;;;25.71;43.87;100508.86;1665729;86;21329;-79
2023/09/06 03:21:51;;;;;;;27.73;14.03;;;;;;;25.87;43.62;100509.23;1665072;84;21360;-78
2023/09/06 03:24:57;;;;;;;26.20;13.48;;;;;;;25.87;43.62;100516.80;1662837;86;21875;-78
2023/09/06 03:28:04;;;;;;;20.62;13.70;;;;;;;25.93;43.56;100517.97;1660437;86;21395;-78
2023/09/06 03:31:12;;;;;;;20.75;12.43;;;;;;;25.83;43.83;100512.86;1660477;86;21382;-78
2023/09/06 03:34:18;;;;;;;28.57;12.95;;;;;;;25.87;43.76;100516.80;1660273;86;21367;-79
2023/09/06 03:37:23;;;;;;;24.77;12.58;;;;;;;25.96;43.47;100519.37;1659102;86;21898;-78
2023/09/06 03:40:37;;;;;;;20.68;13.35;;;;;;;26.06;43.23;100519.97;1664536;86;21336;-79
2023/09/06 03:43:42;;;;;;;22.07;13.53;;;;;;;26.11;43.31;100523.66;1664230;86;21336;-79
2023/09/06 03:46:51;;;;;;;21.68;13.35;;;;;;;26.34;43.04;100529.89;1664902;86;21618;-79
2023/09/06 03:49:58;;;;;;;24.27;12.45;;;;;;;26.43;42.86;100536.11;1665501;86;21336;-79
2023/09/06 03:53:04;;;;;;;21.02;12.30;;;;;;;26.20;43.36;100537.97;1664269;86;21716;-79
2023/09/06 03:56:12;;;;;;;30.45;13.65;;;;;;;26.28;43.34;100539.41;1632909;88;21362;-79
2023/09/06 03:59:12;;;;;;;21.97;12.90;;;;;;;26.34;43.30;100535.49;1633280;88;21369;-79
2023/09/06 04:02:13;;;;;;;25.92;13.48;;;;;;;26.43;43.23;100540.32;1655811;86;21428;-79
2023/09/06 04:05:22;;;;;;;26.23;13.35;;;;;;;26.43;43.28;100540.32;1669147;86;21352;-79
2023/09/06 04:08:29;;;;;;;24.55;13.25;;;;;;;26.64;43.08;100549.64;1667863;85;21360;-79
2023/09/06 04:11:34;;;;;;;27.77;13.85;;;;;;;26.63;43.18;100550.77;1668519;86;21708;-79
2023/09/06 04:14:41;;;;;;;20.27;12.82;;;;;;;26.81;42.96;100551.34;1668440;86;21899;-79
2023/09/06 04:17:49;;;;;;;22.87;13.15;;;;;;;26.89;42.98;100549.40;1667514;86;21337;-79
2023/09/06 04:20:56;;;;;;;27.17;13.28;;;;;;;27.04;42.79;100549.41;1669143;86;21394;-79
2023/09/06 04:24:04;;;;;;;30.57;13.48;;;;;;;27.19;42.63;100553.64;1667353;86;21368;-79
2023/09/06 04:27:12;;;;;;;27.65;14.18;;;;;;;27.30;42.46;100553.67;1668007;85;21356;-79
2023/09/06 04:30:18;;;;;;;24.87;12.15;;;;;;;27.37;42.40;100555.61;1668242;86;21332;-79
2023/09/06 04:33:23;;;;;;;29.52;12.73;;;;;;;27.41;42.51;100554.77;1668421;86;22079;-79
2023/09/06 04:36:36;;;;;;;28.50;13.80;;;;;;;27.56;42.32;100564.30;1668794;86;21384;-79
2023/09/06 04:39:43;;;;;;;24.30;13.28;;;;;;;27.57;42.32;100568.78;1664609;86;21326;-79
2023/09/06 04:42:48;;;;;;;21.17;12.58;;;;;;;27.71;42.16;100571.28;1665983;86;21377;-78
2023/09/06 04:45:54;;;;;;;21.68;12.15;;;;;;;27.91;42.04;100572.70;1640331;86;22510;-78
2023/09/06 04:49:01;;;;;;;19.67;12.70;;;;;;;27.96;41.92;100577.47;1639873;87;21224;-78
2023/09/06 04:52:06;;;;;;;37.23;14.95;;;;;;;28.16;41.47;100566.70;1639636;87;21350;-78
2023/09/06 04:55:15;;;;;;;24.63;13.20;;;;;;;28.43;41.10;100573.38;1656401;86;21318;-78
2023/09/06 04:58:22;;;;;;;24.55;12.80;;;;;;;28.42;41.04;100572.54;1663546;86;21361;-78
2023/09/06 05:01:27;;;;;;;37.33;13.53;;;;;;;28.72;40.44;100574.90;1665130;86;21331;-79
2023/09/06 05:04:34;;;;;;;30.32;14.20;;;;;;;28.83;40.22;100576.50;1637550;86;21375;-78
2023/09/06 05:07:41;;;;;;;31.42;14.87;;;;;;;28.91;40.18;100575.06;1642118;86;21286;-78
2023/09/06 05:10:47;;;;;;;27.98;14.28;;;;;;;28.95;39.98;100579.00;1644064;86;21342;-78
2023/09/06 05:13:53;;;;;;;27.55;14.25;;;;;;;28.92;40.03;100575.33;1649037;86;21324;-78
2023/09/06 05:16:58;;;;;;;24.15;12.85;;;;;;;28.92;40.00;100585.17;1656803;86;21219;-78
2023/09/06 05:20:04;;;;;;;29.30;12.60;;;;;;;28.87;40.26;100590.84;1660120;86;21279;-78
2023/09/06 05:23:14;;;;;;;22.48;12.60;;;;;;;28.88;40.19;100589.70;1624554;86;21330;-79
2023/09/06 05:26:21;;;;;;;25.80;14.33;;;;;;;28.95;39.98;100593.08;1662185;86;21881;-79
2023/09/06 05:29:27;;;;;;;26.15;15.25;;;;;;;29.13;39.84;100595.20;1655839;86;21212;-79
2023/09/06 05:32:33;;;;;;;33.80;14.20;;;;;;;29.14;39.75;100592.66;1655681;86;21353;-79
2023/09/06 05:35:31;;;;;;;26.30;14.98;;;;;;;29.39;39.53;100590.77;1658013;84;21349;-79
2023/09/06 05:38:38;;;;;;;30.65;14.55;;;;;;;29.49;39.34;100594.89;1654411;86;21351;-79
2023/09/06 05:41:45;;;;;;;23.50;13.85;;;;;;;29.57;39.21;100595.70;1648774;86;22349;-79
2023/09/06 05:44:54;;;;;;;31.20;14.45;;;;;;;29.74;39.04;100598.09;1621081;85;21330;-79
2023/09/06 05:48:02;;;;;;;30.72;12.90;;;;;;;29.82;38.97;100600.23;1636802;87;21169;-79
2023/09/06 05:51:12;;;;;;;25.02;12.03;;;;;;;29.87;38.91;100606.39;1640331;87;21323;-79
2023/09/06 05:54:18;;;;;;;24.50;13.13;;;;;;;29.99;38.91;100602.61;1636071;87;21302;-79
2023/09/06 05:57:26;;;;;;;20.35;11.80;;;;;;;30.28;38.51;100606.23;1635340;87;21359;-78
2023/09/06 06:00:33;;;;;;;21.52;11.35;;;;;;;30.29;38.33;100603.69;1636545;87;21331;-79
2023/09/06 06:03:40;;;;;;;18.30;10.58;;;;;;;30.63;37.85;100610.30;1634920;87;21330;-80
2023/09/06 07:48:11;;;;;;;22.48;8.88;;;;;;;32.80;34.26;100590.37;1676814;83;21720;-80
2023/09/06 07:51:18;;;;;;;16.87;9.55;;;;;;;33.17;33.53;100599.15;1685167;84;21312;-80
2023/09/06 07:54:23;;;;;;;18.80;7.80;;;;;;;33.11;33.40;100583.41;1641258;86;21859;-80
2023/09/06 07:57:29;;;;;;;24.87;7.42;;;;;;;33.09;33.33;100589.98;1646512;86;22660;-80
2023/09/06 08:00:36;;;;;;;20.08;7.35;;;;;;;33.17;33.17;100587.81;1649929;85;21514;-80
2023/09/06 08:03:43;;;;;;;18.62;7.12;;;;;;;33.02;32.89;100577.66;1635540;86;21360;-80
2023/09/06 08:06:49;;;;;;;17.98;8.40;;;;;;;32.88;32.95;100576.00;1633926;86;21936;-80
2023/09/06 08:09:55;;;;;;;20.90;8.03;;;;;;;32.99;32.90;100579.73;1627902;87;21394;-80
2023/09/06 08:13:03;;;;;;;16.35;6.65;;;;;;;33.11;32.83;100572.66;1638421;86;21396;-80
2023/09/06 08:16:08;;;;;;;13.85;6.45;;;;;;;33.13;32.32;100581.69;1632654;86;21374;-80
2023/09/06 08:19:15;;;;;;;16.35;7.30;;;;;;;33.18;32.19;100568.23;1636577;86;21366;-80
2023/09/06 08:22:20;;;;;;;14.50;6.00;;;;;;;33.31;31.77;100576.38;1627771;86;21895;-80
2023/09/06 08:25:28;;;;;;;14.07;5.65;;;;;;;33.32;31.05;100588.84;1635160;86;21966;-81
2023/09/06 08:28:36;;;;;;;15.72;6.83;;;;;;;33.32;31.00;100577.50;1633710;86;22657;-80
2023/09/06 08:31:42;;;;;;;15.35;5.80;;;;;;;33.15;31.54;100573.11;1636449;86;21406;-80
2023/09/06 08:34:49;;;;;;;22.35;6.67;;;;;;;33.15;31.92;100570.27;1633743;86;21380;-80
2023/09/06 08:37:54;;;;;;;17.92;6.30;;;;;;;33.34;31.63;100581.42;1639149;86;21356;-79
2023/09/06 08:41:01;;;;;;;16.48;5.92;;;;;;;33.39;31.48;100569.11;1634952;86;22726;-80
2023/09/06 08:44:11;;;;;;;19.75;6.12;;;;;;;33.64;30.81;100574.12;1638566;86;22382;-79
2023/09/06 08:47:16;;;;;;;13.10;6.35;;;;;;;33.98;29.65;100569.27;1640271;85;21391;-79
2023/09/06 08:50:22;;;;;;;14.25;6.53;;;;;;;34.22;29.18;100568.02;1664097;84;21324;-80
2023/09/06 08:57:36;;;;;;;21.17;6.15;;;;;;;34.33;29.37;100570.21;1671672;84;21160;-80
2023/09/06 09:00:41;;;;;;;23.55;6.45;;;;;;;34.27;28.15;100573.55;1663624;84;21386;-80
2023/09/06 09:03:47;;;;;;;21.60;6.85;;;;;;;34.22;28.68;100568.02;1656635;84;21365;-80
2023/09/06 09:06:53;;;;;;;17.27;6.22;;;;;;;34.25;29.38;100567.34;1669578;84;21324;-79
2023/09/06 09:10:20;;;;;;;15.45;6.97;;;;;;;34.48;29.27;100573.20;1673883;84;21274;-80
2023/09/06 09:13:27;;;;;;;14.23;5.85;;;;;;;34.66;28.51;100574.08;1671504;84;21302;-80
2023/09/06 09:16:32;;;;;;;16.95;6.67;;;;;;;34.66;27.81;100570.41;1672661;84;21331;-80
2023/09/06 09:19:37;;;;;;;19.57;7.40;;;;;;;34.81;28.55;100569.32;1692531;84;21326;-80
2023/09/06 09:22:43;;;;;;;20.45;6.72;;;;;;;34.88;28.64;100563.75;1669697;84;21922;-79
2023/09/06 09:25:58;;;;;;;10.32;5.28;;;;;;;34.87;28.39;100560.08;1674009;84;21346;-80
2023/09/06 09:29:03;;;;;;;20.43;6.12;;;;;;;34.68;26.77;100574.59;1671687;84;21895;-80
2023/09/06 09:32:13;;;;;;;14.05;6.08;;;;;;;34.71;27.33;100571.66;1656332;84;21348;-79
2023/09/06 09:35:18;;;;;;;14.23;5.77;;;;;;;34.80;27.88;100563.39;1635442;84;21323;-80
2023/09/06 09:38:24;;;;;;;15.35;6.42;;;;;;;34.71;27.47;100563.14;1670102;84;21333;-80
2023/09/06 09:41:31;;;;;;;20.52;5.47;;;;;;;34.68;27.21;100562.41;1665108;84;21957;-79
2023/09/06 09:44:39;;;;;;;15.08;6.20;;;;;;;34.81;27.33;100559.37;1627552;86;21398;-79
2023/09/06 09:47:46;;;;;;;11.83;5.80;;;;;;;34.92;26.89;100564.76;1627694;87;21324;-79
2023/09/06 09:50:54;;;;;;;14.35;6.58;;;;;;;35.00;26.75;100556.23;1640670;85;21330;-79
2023/09/06 09:54:00;;;;;;;13.25;6.05;;;;;;;34.94;26.97;100556.72;1593565;88;21385;-79
2023/09/06 09:57:04;;;;;;;14.98;5.40;;;;;;;35.14;27.41;100558.91;1611168;87;21350;-80
2023/09/06 09:59:57;;;;;;;12.45;5.55;;;;;;;35.32;26.76;100559.14;1604904;87;21973;-80
2023/09/06 10:03:08;;;;;;;11.95;5.20;;;;;;;35.03;26.53;100563.27;1621611;86;21369;-79
2023/09/06 10:06:16;;;;;;;10.85;5.35;;;;;;;35.16;26.42;100558.00;1634671;87;21310;-80
2023/09/06 10:09:22;;;;;;;14.98;5.17;;;;;;;35.32;26.17;100563.41;1634393;86;21875;-79
2023/09/06 10:12:29;;;;;;;15.80;5.20;;;;;;;35.28;26.56;100568.09;1631575;85;21385;-80
2023/09/06 10:15:35;;;;;;;9.20;5.12;;;;;;;35.58;26.38;100563.41;1625049;86;21972;-80
2023/09/06 10:18:43;;;;;;;10.82;4.50;;;;;;;35.57;26.22;100567.98;1631184;86;21925;-79
2023/09/06 10:21:49;;;;;;;8.73;4.20;;;;;;;35.65;25.80;100557.18;1629835;86;21368;-80
2023/09/06 10:24:58;;;;;;;13.53;5.08;;;;;;;35.54;25.48;100562.99;1634121;87;21364;-80
2023/09/06 10:28:06;;;;;;;9.30;4.55;;;;;;;35.47;25.79;100564.08;1623851;86;21367;-80
2023/09/06 10:31:13;;;;;;;12.65;4.60;;;;;;;35.59;25.10;100553.69;1635572;86;21424;-80
2023/09/06 10:34:18;;;;;;;12.50;4.87;;;;;;;35.53;25.23;100565.01;1638607;87;21355;-80
2023/09/06 10:37:24;;;;;;;11.70;4.50;;;;;;;35.56;25.32;100554.95;1636164;87;21933;-79
2023/09/06 10:40:30;;;;;;;9.25;4.65;;;;;;;35.41;25.68;100554.03;1630123;86;21338;-79
2023/09/06 10:43:37;;;;;;;9.73;4.47;;;;;;;35.27;25.85;100547.12;1610133;87;21973;-79
2023/09/06 10:46:43;;;;;;;9.65;4.92;;;;;;;35.37;25.82;100559.55;1601385;87;22019;-79
2023/09/06 10:49:52;;;;;;;10.20;5.42;;;;;;;35.54;25.64;100557.30;1626551;86;21332;-79
2023/09/06 10:53:07;;;;;;;9.45;4.72;;;;;;;35.51;25.69;100552.28;1623350;85;21326;-79
2023/09/06 10:56:14;;;;;;;16.52;5.05;;;;;;;35.42;26.02;100554.28;1653549;85;21966;-79
2023/09/06 10:59:28;;;;;;;14.03;4.45;;;;;;;35.61;25.85;100552.51;1613193;87;21656;-80
2023/09/06 11:02:35;;;;;;;15.35;5.05;;;;;;;35.51;26.01;100546.59;1655662;85;21321;-80
2023/09/06 11:05:43;;;;;;;9.73;4.60;;;;;;;35.60;25.82;100545.98;1617287;86;21892;-80
2023/09/06 11:08:49;;;;;;;11.22;5.10;;;;;;;35.86;25.44;100540.22;1595967;88;21892;-79
2023/09/06 11:11:59;;;;;;;11.83;5.40;;;;;;;35.77;25.26;100543.09;1670057;85;21306;-79
2023/09/06 11:15:09;;;;;;;13.30;5.00;;;;;;;35.82;25.12;100533.54;1671571;85;21313;-79
2023/09/06 11:18:15;;;;;;;11.60;5.33;;;;;;;35.89;25.32;100532.99;1605778;88;22354;-78
2023/09/06 11:21:28;;;;;;;13.95;4.72;;;;;;;35.31;25.70;100531.89;1608630;88;22252;-79
2023/09/06 11:24:42;;;;;;;11.63;5.03;;;;;;;35.72;25.48;100523.95;1658421;85;21290;-79
2023/09/06 11:27:48;;;;;;;7.33;4.65;;;;;;;35.80;25.62;100530.18;1617087;88;21323;-79
2023/09/06 11:30:53;;;;;;;17.70;5.00;;;;;;;36.22;24.93;100538.89;1600874;87;21937;-79
2023/09/06 11:34:01;;;;;;;7.45;3.85;;;;;;;36.38;25.37;100524.91;1616204;88;21705;-79
2023/09/06 11:37:10;;;;;;;11.38;5.00;;;;;;;36.42;25.25;100525.86;1625466;87;21845;-79
2023/09/06 11:40:18;;;;;;;7.37;4.72;;;;;;;36.35;25.00;100518.71;1672215;85;21289;-79
2023/09/06 11:43:27;;;;;;;12.93;5.45;;;;;;;36.28;24.97;100520.45;1672293;85;21353;-79
2023/09/06 11:46:32;;;;;;;12.73;4.45;;;;;;;36.31;24.70;100523.42;1616807;88;21357;-79
2023/09/06 11:49:40;;;;;;;8.95;4.62;;;;;;;36.27;24.74;100521.61;1658974;86;21888;-79
2023/09/06 11:52:41;;;;;;;23.47;4.35;;;;;;;35.60;25.04;100517.54;1592559;90;21259;-79
2023/09/06 11:55:45;;;;;;;13.22;4.22;;;;;;;36.07;24.62;100512.68;1631001;87;21312;-79
2023/09/06 11:58:54;;;;;;;11.83;4.33;;;;;;;36.28;24.59;100511.31;1632488;87;21369;-79
2023/09/06 12:02:05;;;;;;;7.30;4.00;;;;;;;36.16;24.78;100514.06;1628616;87;21367;-79
2023/09/06 12:05:11;;;;;;;6.87;4.12;;;;;;;36.13;24.82;100493.38;1632413;87;21312;-79
2023/09/06 12:08:21;;;;;;;7.55;4.47;;;;;;;36.25;23.84;100499.77;1637611;87;21354;-79
2023/09/06 12:11:28;;;;;;;6.65;3.95;;;;;;;36.15;23.94;100498.75;1611928;87;21625;-79
2023/09/06 12:14:33;;;;;;;5.53;3.80;;;;;;;36.17;24.04;100492.11;1637604;87;21332;-82
2023/09/06 12:17:40;;;;;;;7.90;4.30;;;;;;;36.26;23.96;100503.69;1631768;87;21919;-78
2023/09/06 12:20:47;;;;;;;6.30;4.28;;;;;;;36.21;23.44;100495.95;1616520;87;21328;-79
2023/09/06 12:23:54;;;;;;;9.05;4.60;;;;;;;36.25;23.50;100488.38;1633667;87;21328;-79
2023/09/06 12:26:59;;;;;;;11.28;4.37;;;;;;;36.04;23.52;100490.61;1634951;87;21389;-79
2023/09/06 12:30:04;;;;;;;13.70;4.17;;;;;;;35.83;23.07;100491.92;1638648;87;21343;-79
2023/09/06 12:33:09;;;;;;;10.10;4.95;;;;;;;35.99;23.21;100495.05;1642511;86;22309;-79
2023/09/06 12:36:16;;;;;;;6.35;3.92;;;;;;;36.27;22.85;100493.12;1639778;87;21316;-79
2023/09/06 12:39:22;;;;;;;6.78;4.10;;;;;;;36.09;22.81;100486.14;1633039;87;21371;-79
2023/09/06 12:42:28;;;;;;;8.03;3.92;;;;;;;36.14;23.17;100492.83;1636497;87;21876;-78
2023/09/06 12:45:39;;;;;;;7.78;4.00;;;;;;;36.13;23.02;100489.11;1631854;87;21890;-78
2023/09/06 12:48:46;;;;;;;5.28;3.75;;;;;;;36.15;22.69;100494.48;1637021;86;21359;-78
2023/09/06 12:51:53;;;;;;;9.53;3.72;;;;;;;36.37;22.81;100489.05;1636407;87;21338;-78
2023/09/06 12:54:59;;;;;;;10.45;3.90;;;;;;;36.29;23.16;100493.05;1646049;84;21698;-79
2023/09/06 12:58:09;;;;;;;7.33;3.87;;;;;;;36.06;23.04;100488.24;1680429;85;21320;-78
2023/09/06 13:01:15;;;;;;;6.22;3.95;;;;;;;36.02;23.07;100484.41;1656167;85;21674;-78
2023/09/06 13:04:21;;;;;;;5.15;3.42;;;;;;;36.12;22.91;100484.60;1678570;85;22817;-78
2023/09/06 13:07:27;;;;;;;6.30;3.42;;;;;;;35.97;22.85;100480.94;1674505;85;21629;-78
2023/09/06 13:10:34;;;;;;;4.62;3.05;;;;;;;35.86;23.12;100481.05;1676894;85;21193;-78
2023/09/06 13:13:40;;;;;;;5.35;3.47;;;;;;;35.86;23.08;100471.09;1608576;88;21359;-79
2023/09/06 13:16:46;;;;;;;9.00;3.47;;;;;;;35.72;23.19;100475.00;1643009;86;21328;-78
2023/09/06 13:19:52;;;;;;;10.00;2.95;;;;;;;35.88;23.06;100467.30;1600476;86;22011;-78
2023/09/06 13:22:57;;;;;;;10.88;4.08;;;;;;;35.68;23.31;100467.49;1658581;85;21221;-78
2023/09/06 13:26:03;;;;;;;7.85;3.25;;;;;;;35.67;23.20;100470.93;1670972;85;21291;-78
2023/09/06 13:29:03;;;;;;;12.45;3.50;;;;;;;35.62;22.73;100468.27;1672057;85;22359;-78
2023/09/06 13:32:09;;;;;;;4.42;3.37;;;;;;;35.69;22.69;100470.58;1672571;85;21329;-78
2023/09/06 13:35:14;;;;;;;8.60;3.17;;;;;;;35.82;22.45;100459.55;1673966;85;21364;-78
2023/09/06 13:38:20;;;;;;;6.80;3.37;;;;;;;34.94;23.23;100464.37;1674628;85;21669;-79
2023/09/06 13:41:25;;;;;;;4.65;2.90;;;;;;;35.61;22.57;100458.64;1668780;85;21358;-78
2023/09/06 13:44:37;;;;;;;5.05;3.52;;;;;;;35.71;22.46;100462.52;1683840;85;21350;-78
2023/09/06 13:47:43;;;;;;;11.00;3.25;;;;;;;35.64;22.45;100464.48;1687151;85;21884;-78
2023/09/06 13:50:48;;;;;;;6.58;3.17;;;;;;;35.68;22.66;100460.37;1687122;85;21365;-78
2023/09/06 13:53:54;;;;;;;10.63;3.10;;;;;;;35.65;22.83;100458.20;1687114;85;21370;-77
2023/09/06 13:57:00;;;;;;;5.65;2.90;;;;;;;35.78;22.83;100455.13;1685354;85;21353;-78
2023/09/06 14:00:05;;;;;;;6.40;3.05;;;;;;;35.72;22.70;100455.09;1687305;85;22550;-78
2023/09/06 14:07:20;;;;;;;10.10;3.70;;;;;;;35.81;22.78;100467.85;1686220;83;21837;-78
2023/09/06 14:10:27;;;;;;;6.00;3.15;;;;;;;35.63;22.93;100454.88;1685982;85;22333;-78
2023/09/06 14:13:34;;;;;;;5.85;3.08;;;;;;;35.58;22.80;100461.59;1687553;85;21364;-78
2023/09/06 14:16:40;;;;;;;6.97;3.20;;;;;;;35.55;22.93;100458.83;1688363;85;21324;-78
2023/09/06 14:19:46;;;;;;;9.13;3.90;;;;;;;35.40;23.13;100458.53;1687002;85;21943;-78
2023/09/06 14:22:54;;;;;;;7.65;3.58;;;;;;;35.45;23.29;100459.77;1687529;85;21324;-78
2023/09/06 14:25:59;;;;;;;8.95;3.12;;;;;;;35.48;23.30;100456.28;1687399;85;22512;-78
2023/09/06 14:29:06;;;;;;;8.08;3.98;;;;;;;35.34;23.28;100447.34;1687379;85;21881;-78
2023/09/06 14:32:12;;;;;;;11.83;3.25;;;;;;;35.54;23.15;100451.48;1685901;85;21318;-78
2023/09/06 14:35:19;;;;;;;11.15;3.60;;;;;;;35.46;23.18;100458.03;1685834;85;21916;-78
2023/09/06 14:38:26;;;;;;;12.47;3.98;;;;;;;35.38;23.23;100450.91;1686320;85;21345;-78
2023/09/06 14:41:32;;;;;;;6.47;3.70;;;;;;;35.26;23.35;100449.63;1687253;85;21908;-78
2023/09/06 14:44:38;;;;;;;12.07;4.17;;;;;;;35.23;23.32;100452.30;1686975;85;21325;-78
2023/09/06 14:47:43;;;;;;;4.78;3.42;;;;;;;35.24;23.38;100447.72;1674690;85;21322;-78
2023/09/06 14:50:49;;;;;;;5.87;3.77;;;;;;;35.14;23.46;100456.58;1687629;85;21873;-78
2023/09/06 14:53:55;;;;;;;7.80;3.87;;;;;;;35.11;23.53;100455.86;1687397;85;21322;-78
2023/09/06 14:57:01;;;;;;;11.45;4.22;;;;;;;35.01;23.75;100471.25;1687894;84;21924;-78
2023/09/06 15:00:06;;;;;;;11.75;4.90;;;;;;;34.97;23.71;100460.31;1690222;84;21314;-78
2023/09/06 15:03:12;;;;;;;11.40;5.17;;;;;;;35.00;23.77;100462.45;1688038;85;22534;-78
2023/09/06 15:06:18;;;;;;;13.40;6.00;;;;;;;34.79;24.17;100467.14;1686710;85;21353;-78
2023/09/06 15:09:25;;;;;;;12.40;6.00;;;;;;;34.62;24.44;100458.63;1687992;85;21894;-78
2023/09/06 15:12:31;;;;;;;11.95;5.62;;;;;;;34.55;24.72;100462.81;1687913;85;21311;-79
2023/09/06 15:15:35;;;;;;;12.13;5.00;;;;;;;34.57;24.87;100463.88;1687418;85;21349;-78
2023/09/06 15:18:41;;;;;;;11.03;5.42;;;;;;;34.55;24.76;100463.39;1686872;85;21904;-79
2023/09/06 15:21:56;;;;;;;13.70;6.37;;;;;;;34.70;24.56;100459.21;1660540;86;21344;-79
2023/09/06 15:25:02;;;;;;;10.28;5.42;;;;;;;34.62;24.66;100456.61;1683714;85;21370;-77
2023/09/06 15:28:08;;;;;;;8.83;5.58;;;;;;;34.47;24.77;100459.95;1685934;85;21341;-78
2023/09/06 15:31:14;;;;;;;14.65;6.25;;;;;;;34.38;24.85;100456.25;1687742;85;21314;-77
2023/09/06 15:34:20;;;;;;;15.35;6.65;;;;;;;33.93;25.55;100459.31;1688033;85;22483;-77
2023/09/06 15:37:25;;;;;;;14.55;6.90;;;;;;;33.82;25.80;100456.76;1687743;85;21397;-77
2023/09/06 15:40:31;;;;;;;13.50;6.58;;;;;;;33.68;26.06;100456.63;1687565;85;21666;-79
2023/09/06 15:43:36;;;;;;;13.93;6.12;;;;;;;33.66;26.08;100455.55;1687105;85;21324;-79
2023/09/06 15:46:43;;;;;;;16.37;7.08;;;;;;;33.50;26.40;100457.13;1686457;85;21304;-78
2023/09/06 15:49:52;;;;;;;19.05;6.50;;;;;;;33.41;26.51;100464.17;1687941;85;21338;-79
2023/09/06 15:52:57;;;;;;;24.87;6.83;;;;;;;33.39;26.58;100462.81;1688106;85;21336;-78
2023/09/06 15:56:03;;;;;;;28.87;6.70;;;;;;;33.19;26.81;100459.95;1687588;85;21678;-78
2023/09/06 15:59:09;;;;;;;24.77;7.05;;;;;;;33.17;26.92;100472.17;1678099;85;21756;-78
2023/09/06 16:02:15;;;;;;;24.43;6.60;;;;;;;33.13;26.97;100469.17;1669500;85;21332;-78
2023/09/06 16:05:21;;;;;;;17.57;5.37;;;;;;;33.17;26.85;100469.34;1663462;86;21957;-79